Time,TemperatureF,DewpointF,PressureIn,WindDirection,WindDirectionDegrees,WindSpeedMPH,WindSpeedGustMPH,Humidity,HourlyPrecipIn,Conditions,Clouds,dailyrainin,SoftwareType,DateUTC
2013-02-09 00:01:00,30.0,27.0,30.35,North,349,0.0,0.0,87,0.00,,,0.00,,2013-02-09 06:01:00,
2013-02-09 00:11:00,30.0,27.0,30.35,North,349,0.0,0.0,87,0.00,,,0.00,,2013-02-09 06:11:00,
2013-02-09 00:21:00,29.0,26.0,30.35,North,349,0.0,3.0,87,0.00,,,0.00,,2013-02-09 06:21:00,
2013-02-09 00:31:00,29.0,26.0,30.36,North,349,0.0,0.0,87,0.00,,,0.00,,2013-02-09 06:31:00,
2013-02-09 00:42:00,29.0,26.0,30.36,North,349,0.0,0.0,87,0.00,,,0.00,,2013-02-09 06:42:00,
2013-02-09 00:51:00,29.0,26.0,30.35,North,349,0.0,2.0,88,0.00,,,0.00,,2013-02-09 06:51:00,
2013-02-09 01:01:00,29.0,26.0,30.35,North,349,1.0,3.0,88,0.00,,,0.00,,2013-02-09 07:01:00,
2013-02-09 01:11:00,29.0,26.0,30.35,North,349,1.0,3.0,88,0.00,,,0.00,,2013-02-09 07:11:00,
2013-02-09 01:21:00,29.0,26.0,30.35,North,349,0.0,0.0,88,0.00,,,0.00,,2013-02-09 07:21:00,
2013-02-09 01:31:00,29.0,26.0,30.35,North,349,0.0,3.0,89,0.00,,,0.00,,2013-02-09 07:31:00,
2013-02-09 01:42:00,29.0,26.0,30.35,North,349,0.0,3.0,89,0.00,,,0.00,,2013-02-09 07:42:00,
2013-02-09 01:51:00,29.0,26.0,30.35,North,349,0.0,3.0,89,0.00,,,0.00,,2013-02-09 07:51:00,
2013-02-09 02:01:00,29.0,26.0,30.35,North,349,0.0,4.0,89,0.00,,,0.00,,2013-02-09 08:01:00,
2013-02-09 02:11:00,29.0,26.0,30.35,North,349,0.0,4.0,89,0.00,,,0.00,,2013-02-09 08:11:00,
2013-02-09 02:21:00,29.0,26.0,30.34,North,349,0.0,1.0,90,0.00,,,0.00,,2013-02-09 08:21:00,
2013-02-09 02:31:00,29.0,26.0,30.34,North,349,0.0,1.0,90,0.00,,,0.00,,2013-02-09 08:31:00,
2013-02-09 02:42:00,29.0,26.0,30.34,North,349,0.0,1.0,90,0.00,,,0.00,,2013-02-09 08:42:00,
2013-02-09 02:52:00,29.0,26.0,30.35,North,349,0.0,0.0,90,0.00,,,0.00,,2013-02-09 08:52:00,
2013-02-09 03:03:00,29.0,26.0,30.35,North,349,0.0,0.0,90,0.00,,,0.00,,2013-02-09 09:03:00,
2013-02-09 03:11:00,29.0,26.0,30.35,North,349,0.0,0.0,90,0.00,,,0.00,,2013-02-09 09:11:00,
2013-02-09 03:21:00,29.0,26.0,30.35,North,349,0.0,3.0,90,0.00,,,0.00,,2013-02-09 09:21:00,
2013-02-09 03:32:00,29.0,26.0,30.35,North,349,0.0,3.0,90,0.00,,,0.00,,2013-02-09 09:32:00,
2013-02-09 03:42:00,29.0,26.0,30.35,North,349,0.0,3.0,90,0.00,,,0.00,,2013-02-09 09:42:00,
2013-02-09 03:51:00,29.0,26.0,30.35,North,349,0.0,0.0,90,0.00,,,0.00,,2013-02-09 09:51:00,
2013-02-09 04:01:00,29.0,26.0,30.34,North,349,0.0,2.0,90,0.00,,,0.00,,2013-02-09 10:01:00,
2013-02-09 04:11:00,29.0,26.0,30.34,North,349,0.0,2.0,90,0.00,,,0.00,,2013-02-09 10:11:00,
2013-02-09 04:21:00,29.0,26.0,30.35,North,349,0.0,0.0,89,0.00,,,0.00,,2013-02-09 10:21:00,
2013-02-09 04:31:00,29.0,26.0,30.35,North,349,0.0,2.0,88,0.00,,,0.00,,2013-02-09 10:31:00,
2013-02-09 04:42:00,29.0,26.0,30.35,North,349,0.0,2.0,88,0.00,,,0.00,,2013-02-09 10:42:00,
2013-02-09 04:51:00,29.0,26.0,30.36,North,355,0.0,2.0,87,0.00,,,0.00,,2013-02-09 10:51:00,
2013-02-09 05:01:00,29.0,24.0,30.35,East,96,1.0,5.0,82,0.00,,,0.00,,2013-02-09 11:01:00,
2013-02-09 05:11:00,29.0,24.0,30.35,East,96,1.0,5.0,82,0.00,,,0.00,,2013-02-09 11:11:00,
2013-02-09 05:22:00,29.0,24.0,30.36,East,95,0.0,3.0,82,0.00,,,0.00,,2013-02-09 11:22:00,
2013-02-09 05:32:00,29.0,24.0,30.37,SE,132,4.0,8.0,81,0.00,,,0.00,,2013-02-09 11:32:00,
2013-02-09 05:41:00,29.0,24.0,30.37,SE,132,4.0,8.0,81,0.00,,,0.00,,2013-02-09 11:41:00,
2013-02-09 05:52:00,29.0,24.0,30.36,SE,134,4.0,7.0,81,0.00,,,0.00,,2013-02-09 11:52:00,
2013-02-09 06:02:00,29.0,24.0,30.36,SE,127,5.0,7.0,81,0.00,,,0.00,,2013-02-09 12:02:00,
2013-02-09 06:11:00,29.0,24.0,30.36,SE,127,5.0,7.0,81,0.00,,,0.00,,2013-02-09 12:11:00,
2013-02-09 06:21:00,29.0,24.0,30.35,SE,130,0.0,8.0,81,0.00,,,0.00,,2013-02-09 12:21:00,
2013-02-09 06:32:00,29.0,24.0,30.36,SE,127,4.0,6.0,81,0.00,,,0.00,,2013-02-09 12:32:00,
2013-02-09 06:42:00,29.0,24.0,30.36,SE,127,4.0,6.0,81,0.00,,,0.00,,2013-02-09 12:42:00,
2013-02-09 06:52:00,29.0,24.0,30.36,SE,130,4.0,7.0,82,0.00,,,0.00,,2013-02-09 12:52:00,
2013-02-09 07:02:00,29.0,24.0,30.36,SSE,148,7.0,10.0,81,0.00,,,0.00,,2013-02-09 13:02:00,
2013-02-09 07:11:00,29.0,24.0,30.36,SSE,148,7.0,10.0,81,0.00,,,0.00,,2013-02-09 13:11:00,
2013-02-09 07:21:00,29.0,24.0,30.37,SE,130,6.0,9.0,82,0.00,,,0.00,,2013-02-09 13:21:00,
2013-02-09 07:32:00,29.0,24.0,30.36,SE,128,5.0,10.0,82,0.00,,,0.00,,2013-02-09 13:32:00,
2013-02-09 07:42:00,29.0,24.0,30.36,SE,128,5.0,10.0,82,0.00,,,0.00,,2013-02-09 13:42:00,
2013-02-09 07:52:00,29.0,24.0,30.35,ESE,117,1.0,12.0,81,0.00,,,0.00,,2013-02-09 13:52:00,
2013-02-09 08:01:00,29.0,24.0,30.35,ESE,120,3.0,10.0,82,0.00,,,0.00,,2013-02-09 14:01:00,
2013-02-09 08:11:00,29.0,24.0,30.35,ESE,120,3.0,10.0,82,0.00,,,0.00,,2013-02-09 14:11:00,
2013-02-09 08:21:00,29.0,24.0,30.35,SE,140,9.0,14.0,82,0.00,,,0.00,,2013-02-09 14:21:00,
2013-02-09 08:32:00,29.0,25.0,30.34,SE,124,9.0,16.0,83,0.00,,,0.00,,2013-02-09 14:32:00,
2013-02-09 08:42:00,29.0,25.0,30.34,SE,124,9.0,16.0,83,0.00,,,0.00,,2013-02-09 14:42:00,
2013-02-09 08:52:00,29.0,25.0,30.34,ESE,121,8.0,14.0,83,0.00,,,0.00,,2013-02-09 14:52:00,
2013-02-09 09:02:00,29.0,25.0,30.34,ESE,121,8.0,14.0,83,0.00,,,0.00,,2013-02-09 15:02:00,
2013-02-09 09:11:00,29.0,25.0,30.34,ESE,121,8.0,14.0,83,0.00,,,0.00,,2013-02-09 15:11:00,
2013-02-09 09:21:00,29.0,25.0,30.35,SE,133,7.0,14.0,83,0.00,,,0.00,,2013-02-09 15:21:00,
2013-02-09 09:32:00,30.0,25.0,30.36,SSE,166,7.0,10.0,83,0.00,,,0.00,,2013-02-09 15:32:00,
2013-02-09 09:42:00,30.0,25.0,30.36,SSE,166,7.0,10.0,83,0.00,,,0.00,,2013-02-09 15:42:00,
2013-02-09 09:51:00,30.0,25.0,30.35,SE,136,8.0,12.0,83,0.00,,,0.00,,2013-02-09 15:51:00,
2013-02-09 10:01:00,30.0,25.0,30.35,SSE,157,8.0,12.0,83,0.00,,,0.00,,2013-02-09 16:01:00,
2013-02-09 10:11:00,30.0,25.0,30.35,SSE,157,8.0,12.0,83,0.00,,,0.00,,2013-02-09 16:11:00,
2013-02-09 10:22:00,30.0,25.0,30.35,SSE,166,10.0,15.0,82,0.00,,,0.00,,2013-02-09 16:22:00,
2013-02-09 10:31:00,30.0,25.0,30.35,SSE,162,8.0,14.0,81,0.00,,,0.00,,2013-02-09 16:31:00,
2013-02-09 10:42:00,30.0,25.0,30.35,SSE,162,8.0,14.0,81,0.00,,,0.00,,2013-02-09 16:42:00,
2013-02-09 10:51:00,31.0,26.0,30.35,SSE,154,9.0,12.0,82,0.00,,,0.00,,2013-02-09 16:51:00,
2013-02-09 11:01:00,31.0,26.0,30.35,SSE,168,10.0,14.0,81,0.00,,,0.00,,2013-02-09 17:01:00,
2013-02-09 11:11:00,31.0,26.0,30.35,SSE,168,10.0,14.0,81,0.00,,,0.00,,2013-02-09 17:11:00,
2013-02-09 11:21:00,31.0,26.0,30.35,South,169,7.0,12.0,81,0.00,,,0.00,,2013-02-09 17:21:00,
2013-02-09 11:32:00,31.0,26.0,30.35,SSE,166,10.0,13.0,81,0.00,,,0.00,,2013-02-09 17:32:00,
2013-02-09 11:42:00,31.0,26.0,30.35,SSE,166,10.0,13.0,81,0.00,,,0.00,,2013-02-09 17:42:00,
2013-02-09 11:52:00,31.0,26.0,30.34,South,171,9.0,14.0,80,0.00,,,0.00,,2013-02-09 17:52:00,
2013-02-09 12:02:00,32.0,27.0,30.33,SSE,167,10.0,13.0,81,0.00,,,0.00,,2013-02-09 18:02:00,
2013-02-09 12:12:00,32.0,27.0,30.33,SSE,167,10.0,13.0,81,0.00,,,0.00,,2013-02-09 18:12:00,
2013-02-09 12:23:00,32.0,27.0,30.32,SE,134,8.0,15.0,80,0.00,,,0.00,,2013-02-09 18:23:00,
2013-02-09 12:32:00,32.0,27.0,30.31,SE,138,4.0,11.0,80,0.00,,,0.00,,2013-02-09 18:32:00,
2013-02-09 12:42:00,32.0,27.0,30.31,SE,138,4.0,11.0,80,0.00,,,0.00,,2013-02-09 18:42:00,
2013-02-09 12:51:00,32.0,27.0,30.29,SSE,147,7.0,11.0,82,0.00,,,0.00,,2013-02-09 18:51:00,
2013-02-09 13:01:00,33.0,28.0,30.29,SSE,152,9.0,11.0,80,0.00,,,0.00,,2013-02-09 19:01:00,
2013-02-09 13:11:00,33.0,28.0,30.29,SSE,152,9.0,11.0,80,0.00,,,0.00,,2013-02-09 19:11:00,
2013-02-09 13:22:00,33.0,28.0,30.29,South,173,8.0,12.0,81,0.00,,,0.00,,2013-02-09 19:22:00,
2013-02-09 13:32:00,34.0,28.0,30.28,SSE,151,6.0,11.0,78,0.00,,,0.00,,2013-02-09 19:32:00,
2013-02-09 13:42:00,34.0,28.0,30.28,SSE,151,6.0,11.0,78,0.00,,,0.00,,2013-02-09 19:42:00,
2013-02-09 13:52:00,34.0,28.0,30.27,SSE,149,4.0,8.0,79,0.00,,,0.00,,2013-02-09 19:52:00,
2013-02-09 14:01:00,35.0,29.0,30.26,SSE,147,2.0,7.0,79,0.00,,,0.00,,2013-02-09 20:01:00,
2013-02-09 14:11:00,35.0,29.0,30.26,SSE,147,2.0,7.0,79,0.00,,,0.00,,2013-02-09 20:11:00,
2013-02-09 14:21:00,36.0,30.0,30.27,SE,144,1.0,8.0,78,0.00,,,0.00,,2013-02-09 20:21:00,
2013-02-09 14:32:00,36.0,29.0,30.26,SE,142,4.0,8.0,77,0.00,,,0.00,,2013-02-09 20:32:00,
2013-02-09 14:42:00,36.0,29.0,30.26,SE,142,4.0,8.0,77,0.00,,,0.00,,2013-02-09 20:42:00,
2013-02-09 14:52:00,36.0,30.0,30.25,SSE,150,4.0,8.0,78,0.00,,,0.00,,2013-02-09 20:52:00,
2013-02-09 15:02:00,36.0,30.0,30.25,SSE,150,4.0,8.0,78,0.00,,,0.00,,2013-02-09 21:02:00,
2013-02-09 15:11:00,36.0,30.0,30.25,SSE,150,4.0,8.0,78,0.00,,,0.00,,2013-02-09 21:11:00,
2013-02-09 15:21:00,38.0,31.0,30.23,SSE,155,6.0,10.0,76,0.00,,,0.00,,2013-02-09 21:21:00,
2013-02-09 15:32:00,39.0,32.0,30.23,SE,138,10.0,12.0,75,0.00,,,0.00,,2013-02-09 21:32:00,
2013-02-09 15:42:00,39.0,32.0,30.23,SE,138,10.0,12.0,75,0.00,,,0.00,,2013-02-09 21:42:00,
2013-02-09 15:52:00,40.0,33.0,30.22,SSE,147,9.0,14.0,75,0.00,,,0.00,,2013-02-09 21:52:00,
2013-02-09 16:01:00,40.0,32.0,30.21,SE,135,9.0,13.0,74,0.00,,,0.00,,2013-02-09 22:01:00,
2013-02-09 16:11:00,40.0,32.0,30.21,SE,135,9.0,13.0,74,0.00,,,0.00,,2013-02-09 22:11:00,
2013-02-09 16:21:00,39.0,31.0,30.20,SE,137,10.0,14.0,73,0.00,,,0.00,,2013-02-09 22:21:00,
2013-02-09 16:32:00,39.0,31.0,30.19,SE,140,10.0,14.0,74,0.00,,,0.00,,2013-02-09 22:32:00,
2013-02-09 16:42:00,39.0,31.0,30.19,SE,140,10.0,14.0,74,0.00,,,0.00,,2013-02-09 22:42:00,
2013-02-09 16:52:00,39.0,32.0,30.18,SE,126,6.0,12.0,75,0.00,,,0.00,,2013-02-09 22:52:00,
2013-02-09 17:01:00,39.0,31.0,30.18,SE,129,7.0,11.0,74,0.00,,,0.00,,2013-02-09 23:01:00,
2013-02-09 17:11:00,39.0,31.0,30.18,SE,129,7.0,11.0,74,0.00,,,0.00,,2013-02-09 23:11:00,
2013-02-09 17:21:00,38.0,31.0,30.18,SE,130,6.0,9.0,75,0.00,,,0.00,,2013-02-09 23:21:00,
2013-02-09 17:32:00,37.0,30.0,30.17,SE,138,7.0,10.0,75,0.00,,,0.00,,2013-02-09 23:32:00,
2013-02-09 17:42:00,37.0,30.0,30.17,SE,138,7.0,10.0,75,0.00,,,0.00,,2013-02-09 23:42:00,
2013-02-09 17:52:00,36.0,29.0,30.17,SE,140,5.0,9.0,77,0.00,,,0.00,,2013-02-09 23:52:00,
2013-02-09 18:02:00,36.0,30.0,30.16,SE,140,5.0,10.0,78,0.00,,,0.00,,2013-02-10 00:02:00,
2013-02-09 18:12:00,36.0,30.0,30.16,SE,140,5.0,10.0,78,0.00,,,0.00,,2013-02-10 00:12:00,
2013-02-09 18:21:00,35.0,29.0,30.16,SE,134,5.0,9.0,79,0.00,,,0.00,,2013-02-10 00:21:00,
2013-02-09 18:32:00,35.0,29.0,30.16,SE,134,6.0,8.0,80,0.00,,,0.00,,2013-02-10 00:32:00,
2013-02-09 18:42:00,35.0,29.0,30.16,SE,134,6.0,8.0,80,0.00,,,0.00,,2013-02-10 00:42:00,
2013-02-09 18:51:00,35.0,29.0,30.15,SE,131,6.0,9.0,80,0.00,,,0.00,,2013-02-10 00:51:00,
2013-02-09 19:01:00,34.0,28.0,30.15,SE,127,5.0,8.0,80,0.00,,,0.00,,2013-02-10 01:01:00,
2013-02-09 19:12:00,34.0,28.0,30.15,SE,127,5.0,8.0,80,0.00,,,0.00,,2013-02-10 01:12:00,
2013-02-09 19:21:00,34.0,29.0,30.15,SE,127,5.0,7.0,81,0.00,,,0.00,,2013-02-10 01:21:00,
2013-02-09 19:32:00,34.0,29.0,30.15,SE,138,6.0,9.0,81,0.00,,,0.00,,2013-02-10 01:32:00,
2013-02-09 19:42:00,34.0,29.0,30.15,SE,138,6.0,9.0,81,0.00,,,0.00,,2013-02-10 01:42:00,
2013-02-09 19:51:00,34.0,28.0,30.14,SE,126,6.0,10.0,80,0.00,,,0.00,,2013-02-10 01:51:00,
2013-02-09 20:01:00,34.0,28.0,30.14,ESE,123,8.0,12.0,80,0.00,,,0.00,,2013-02-10 02:01:00,
2013-02-09 20:11:00,34.0,28.0,30.14,ESE,123,8.0,12.0,80,0.00,,,0.00,,2013-02-10 02:11:00,
2013-02-09 20:22:00,34.0,29.0,30.14,ESE,121,5.0,9.0,81,0.00,,,0.00,,2013-02-10 02:22:00,
2013-02-09 20:32:00,34.0,29.0,30.13,ESE,121,6.0,9.0,81,0.00,,,0.00,,2013-02-10 02:32:00,
2013-02-09 20:42:00,34.0,29.0,30.13,ESE,121,6.0,9.0,81,0.00,,,0.00,,2013-02-10 02:42:00,
2013-02-09 20:52:00,34.0,29.0,30.13,ESE,121,4.0,8.0,82,0.00,,,0.00,,2013-02-10 02:52:00,
2013-02-09 21:01:00,34.0,28.0,30.12,ESE,120,7.0,11.0,80,0.00,,,0.00,,2013-02-10 03:01:00,
2013-02-09 21:11:00,34.0,28.0,30.12,ESE,120,7.0,11.0,80,0.00,,,0.00,,2013-02-10 03:11:00,
2013-02-09 21:21:00,34.0,28.0,30.11,ESE,121,7.0,11.0,79,0.00,,,0.00,,2013-02-10 03:21:00,
2013-02-09 21:32:00,34.0,28.0,30.11,SE,124,8.0,12.0,78,0.00,,,0.00,,2013-02-10 03:32:00,
2013-02-09 21:42:00,34.0,28.0,30.11,SE,124,8.0,12.0,78,0.00,,,0.00,,2013-02-10 03:42:00,
2013-02-09 21:51:00,34.0,28.0,30.11,SE,124,8.0,11.0,78,0.00,,,0.00,,2013-02-10 03:51:00,
2013-02-09 22:01:00,34.0,28.0,30.10,ESE,123,8.0,11.0,79,0.00,,,0.00,,2013-02-10 04:01:00,
2013-02-09 22:11:00,34.0,28.0,30.10,ESE,123,8.0,11.0,79,0.00,,,0.00,,2013-02-10 04:11:00,
2013-02-09 22:21:00,34.0,28.0,30.10,SE,126,8.0,10.0,79,0.00,,,0.00,,2013-02-10 04:21:00,
2013-02-09 22:32:00,35.0,29.0,30.09,SE,137,10.0,13.0,77,0.00,,,0.00,,2013-02-10 04:32:00,
2013-02-09 22:42:00,35.0,29.0,30.09,SE,137,10.0,13.0,77,0.00,,,0.00,,2013-02-10 04:42:00,
2013-02-09 22:51:00,35.0,28.0,30.09,SE,139,7.0,11.0,76,0.00,,,0.00,,2013-02-10 04:51:00,
2013-02-09 23:01:00,35.0,29.0,30.09,SE,137,8.0,11.0,77,0.00,,,0.00,,2013-02-10 05:01:00,
2013-02-09 23:11:00,35.0,29.0,30.09,SE,137,8.0,11.0,77,0.00,,,0.00,,2013-02-10 05:11:00,
2013-02-09 23:22:00,35.0,29.0,30.08,SE,138,7.0,12.0,77,0.00,,,0.00,,2013-02-10 05:22:00,
2013-02-09 23:31:00,35.0,29.0,30.08,SE,145,10.0,12.0,78,0.00,,,0.00,,2013-02-10 05:31:00,
2013-02-09 23:41:00,35.0,29.0,30.08,SE,145,10.0,12.0,78,0.00,,,0.00,,2013-02-10 05:41:00,
2013-02-09 23:52:00,35.0,29.0,30.07,SSE,150,12.0,15.0,78,0.00,,,0.00,,2013-02-10 05:52:00,